createdAt,value
2018-12-27T00:00:25.033Z,50.66
2018-12-27T00:02:54.900Z,50.52
2018-12-27T00:05:18.902Z,50.32
2018-12-27T00:07:44.926Z,50.41
2018-12-27T00:10:10.929Z,50.31
2018-12-27T00:12:36.931Z,50.31
2018-12-27T00:15:03.032Z,50.19
2018-12-27T00:17:29.027Z,50.16
2018-12-27T00:19:55.051Z,50.12
2018-12-27T00:22:21.063Z,50.20
2018-12-27T00:24:47.078Z,50.31
2018-12-27T00:27:13.094Z,50.33
2018-12-27T00:29:39.097Z,50.16
2018-12-27T00:32:05.119Z,50.19
2018-12-27T00:34:31.123Z,50.22
2018-12-27T00:36:57.154Z,50.36
2018-12-27T00:39:23.157Z,50.23
2018-12-27T00:41:49.167Z,50.28
2018-12-27T00:44:15.173Z,50.66
2018-12-27T00:46:41.291Z,50.54
2018-12-27T00:49:07.303Z,50.59
2018-12-27T00:51:33.324Z,50.39
2018-12-27T00:53:59.415Z,50.41
2018-12-27T00:56:25.445Z,50.24
2018-12-27T00:58:51.453Z,50.24
2018-12-27T01:01:17.450Z,50.18
2018-12-27T01:03:43.482Z,50.12
2018-12-27T01:06:09.502Z,50.04
2018-12-27T01:08:35.524Z,50.09
2018-12-27T01:11:01.591Z,50.14
2018-12-27T01:13:27.565Z,49.98
2018-12-27T01:15:53.570Z,50.03
2018-12-27T01:18:19.580Z,50.38
2018-12-27T01:20:45.608Z,50.12
2018-12-27T01:23:11.644Z,50.21
2018-12-27T01:25:37.663Z,50.34
2018-12-27T01:28:03.850Z,50.56
2018-12-27T01:30:29.902Z,50.54
2018-12-27T01:32:56.184Z,50.32
2018-12-27T01:35:22.188Z,50.19
2018-12-27T01:37:48.222Z,49.93
2018-12-27T01:40:14.871Z,49.96
2018-12-27T01:42:40.886Z,50.01
2018-12-27T01:45:06.895Z,50.11
2018-12-27T01:47:32.895Z,49.89
2018-12-27T01:49:58.978Z,49.96
2018-12-27T01:52:25.087Z,49.90
2018-12-27T01:54:51.106Z,49.96
2018-12-27T01:57:17.098Z,49.96
2018-12-27T01:59:43.287Z,49.92
2018-12-27T02:02:09.310Z,50.02
2018-12-27T02:04:35.315Z,49.89
2018-12-27T02:07:01.617Z,49.89
2018-12-27T02:09:27.610Z,49.74
2018-12-27T02:11:53.643Z,49.75
2018-12-27T02:14:19.654Z,49.81
2018-12-27T02:16:45.691Z,49.80
2018-12-27T02:19:11.698Z,49.65
2018-12-27T02:21:37.712Z,49.74
2018-12-27T02:24:03.713Z,49.69
2018-12-27T02:26:30.149Z,49.65
2018-12-27T02:28:56.186Z,49.62
2018-12-27T02:31:22.210Z,49.59
2018-12-27T02:33:48.217Z,49.51
2018-12-27T02:36:14.479Z,49.48
2018-12-27T02:38:40.526Z,49.46
2018-12-27T02:41:06.546Z,49.34
2018-12-27T02:43:32.551Z,49.23
2018-12-27T02:45:58.596Z,49.36
2018-12-27T02:48:24.707Z,49.45
2018-12-27T02:50:50.734Z,49.61
2018-12-27T02:53:16.751Z,49.74
2018-12-27T02:55:42.761Z,49.88
2018-12-27T02:58:08.776Z,49.80
2018-12-27T03:00:34.822Z,49.84
2018-12-27T03:03:00.846Z,49.93
2018-12-27T03:05:26.850Z,50.10
2018-12-27T03:07:52.874Z,50.08
2018-12-27T03:10:18.881Z,50.19
2018-12-27T03:12:45.026Z,50.29
2018-12-27T03:15:11.024Z,50.23
2018-12-27T03:17:37.026Z,50.39
2018-12-27T03:20:03.044Z,50.35
2018-12-27T03:22:29.059Z,50.31
2018-12-27T03:24:55.075Z,50.22
2018-12-27T03:27:21.092Z,50.30
2018-12-27T03:29:47.162Z,50.33
2018-12-27T03:32:13.228Z,50.50
2018-12-27T03:34:39.255Z,50.51
2018-12-27T03:37:05.281Z,50.57
2018-12-27T03:39:31.298Z,50.54
2018-12-27T03:41:57.326Z,50.65
2018-12-27T03:44:23.333Z,50.70
2018-12-27T03:46:49.729Z,50.76
2018-12-27T03:49:16.072Z,50.80
2018-12-27T03:51:42.092Z,50.85
2018-12-27T03:54:08.182Z,50.89
2018-12-27T03:56:34.332Z,50.83
2018-12-27T03:59:00.497Z,50.90
2018-12-27T04:01:26.514Z,50.70
2018-12-27T04:04:01.038Z,50.68
2018-12-27T04:06:20.258Z,50.71
2018-12-27T04:08:46.280Z,50.61
2018-12-27T04:11:12.351Z,50.54
2018-12-27T04:13:38.374Z,50.53
2018-12-27T04:16:04.413Z,50.66
2018-12-27T04:18:30.566Z,50.75
2018-12-27T04:20:56.615Z,50.71
2018-12-27T04:23:22.645Z,50.76
2018-12-27T04:25:48.648Z,50.84
2018-12-27T04:28:14.650Z,50.79
2018-12-27T04:30:40.678Z,50.92
2018-12-27T04:33:06.787Z,50.98
2018-12-27T04:35:32.793Z,50.97
2018-12-27T04:37:58.794Z,50.90
2018-12-27T04:40:24.804Z,50.97
2018-12-27T04:42:51.110Z,51.12
2018-12-27T04:45:17.166Z,51.01
2018-12-27T04:47:43.272Z,51.02
2018-12-27T04:50:09.277Z,50.90
2018-12-27T04:52:35.302Z,50.76
2018-12-27T04:55:01.307Z,50.77
2018-12-27T04:57:27.299Z,50.74
2018-12-27T04:59:53.338Z,50.76
2018-12-27T05:02:19.599Z,50.79
2018-12-27T05:04:45.635Z,50.87
2018-12-27T05:07:11.643Z,50.92
2018-12-27T05:09:37.653Z,50.81
2018-12-27T05:12:03.652Z,50.95
2018-12-27T05:14:29.663Z,50.79
2018-12-27T05:16:55.699Z,51.05
2018-12-27T05:19:21.723Z,50.99
2018-12-27T05:21:47.718Z,50.85
2018-12-27T05:24:13.727Z,51.09
2018-12-27T05:26:39.757Z,50.92
2018-12-27T05:29:05.768Z,51.04
2018-12-27T05:31:31.818Z,50.98
2018-12-27T05:33:57.834Z,51.11
2018-12-27T05:36:23.878Z,51.00
2018-12-27T05:38:49.881Z,51.05
2018-12-27T05:41:15.882Z,50.86
2018-12-27T05:43:41.916Z,50.79
2018-12-27T05:46:07.933Z,50.69
2018-12-27T05:48:33.937Z,50.61
2018-12-27T05:50:59.951Z,50.57
2018-12-27T05:53:25.982Z,50.67
2018-12-27T05:55:51.984Z,50.85
2018-12-27T05:58:18.047Z,50.84
2018-12-27T06:00:44.075Z,50.96
2018-12-27T06:03:10.074Z,50.94
2018-12-27T06:05:36.087Z,50.92
2018-12-27T06:08:02.130Z,50.85
2018-12-27T06:10:28.167Z,50.79
2018-12-27T06:12:54.158Z,50.87
2018-12-27T06:15:20.196Z,50.84
2018-12-27T06:17:46.185Z,50.97
2018-12-27T06:20:12.213Z,51.00
2018-12-27T06:22:38.583Z,50.91
2018-12-27T06:25:04.612Z,50.87
2018-12-27T06:27:30.631Z,50.85
2018-12-27T06:29:56.631Z,50.70
2018-12-27T06:32:22.674Z,50.78
2018-12-27T06:34:48.890Z,50.68
2018-12-27T06:37:14.902Z,50.62
2018-12-27T06:39:40.898Z,50.78
2018-12-27T06:42:06.991Z,50.82
2018-12-27T06:44:33.029Z,50.87
2018-12-27T06:46:59.031Z,50.75
2018-12-27T06:49:25.140Z,50.70
2018-12-27T06:51:51.186Z,50.95
2018-12-27T06:54:17.182Z,50.97
2018-12-27T06:56:43.210Z,50.93
2018-12-27T06:59:09.582Z,50.85
2018-12-27T07:01:35.627Z,50.83
2018-12-27T07:04:01.718Z,50.43
2018-12-27T07:06:27.738Z,50.87
2018-12-27T07:08:53.803Z,50.79
2018-12-27T07:11:19.823Z,50.86
2018-12-27T07:13:45.862Z,50.91
2018-12-27T07:16:11.944Z,50.76
2018-12-27T07:18:37.952Z,50.60
2018-12-27T07:21:04.018Z,50.68
2018-12-27T07:23:30.083Z,50.57
2018-12-27T07:25:56.251Z,50.49
2018-12-27T07:28:22.271Z,50.49
2018-12-27T07:30:48.282Z,50.54
2018-12-27T07:33:14.315Z,50.45
2018-12-27T07:35:40.522Z,50.67
2018-12-27T07:38:06.532Z,50.75
2018-12-27T07:40:32.534Z,50.74
2018-12-27T07:42:58.545Z,50.79
2018-12-27T07:45:24.633Z,50.75
2018-12-27T07:47:50.675Z,50.74
2018-12-27T07:50:16.760Z,50.87
2018-12-27T07:52:42.821Z,50.63
2018-12-27T07:55:08.967Z,50.60
2018-12-27T07:57:35.347Z,50.79
2018-12-27T08:00:01.452Z,50.84
2018-12-27T08:02:27.577Z,50.61
2018-12-27T08:04:53.683Z,50.66
2018-12-27T08:07:19.710Z,50.57
2018-12-27T08:09:45.718Z,50.60
2018-12-27T08:12:11.727Z,50.40
2018-12-27T08:14:38.053Z,50.59
2018-12-27T08:17:04.163Z,50.60
2018-12-27T08:19:30.187Z,50.38
2018-12-27T08:21:56.552Z,50.55
2018-12-27T08:24:22.583Z,50.36
2018-12-27T08:26:48.791Z,50.21
2018-12-27T08:29:14.806Z,50.25
2018-12-27T08:31:40.807Z,50.10
2018-12-27T08:34:06.883Z,50.13
2018-12-27T08:36:32.947Z,50.07
2018-12-27T08:38:58.956Z,50.06
2018-12-27T08:41:24.954Z,50.15
2018-12-27T08:43:51.071Z,50.69
2018-12-27T08:46:17.130Z,50.53
2018-12-27T08:48:43.142Z,50.47
2018-12-27T08:51:09.147Z,50.70
2018-12-27T08:53:35.183Z,50.61
2018-12-27T08:56:01.220Z,50.61
2018-12-27T08:58:27.297Z,50.70
2018-12-27T09:00:53.315Z,50.70
2018-12-27T09:03:19.424Z,50.58
2018-12-27T09:05:45.806Z,50.74
2018-12-27T09:08:11.817Z,50.72
2018-12-27T09:10:37.871Z,50.88
2018-12-27T09:13:03.869Z,51.18
2018-12-27T09:15:29.953Z,51.06
2018-12-27T09:17:55.987Z,51.07
2018-12-27T09:20:22.022Z,51.18
2018-12-27T09:22:48.299Z,51.18
2018-12-27T09:25:14.326Z,51.13
2018-12-27T09:27:40.357Z,51.19
2018-12-27T09:30:06.400Z,51.21
2018-12-27T09:32:32.482Z,51.24
2018-12-27T09:34:58.507Z,51.41
2018-12-27T09:37:24.525Z,51.25
2018-12-27T09:39:50.534Z,51.11
2018-12-27T09:42:16.598Z,51.07
2018-12-27T09:44:42.613Z,51.00
2018-12-27T09:47:08.699Z,51.03
2018-12-27T09:49:34.691Z,50.29
2018-12-27T09:52:02.139Z,50.50
2018-12-27T09:54:28.510Z,50.45
2018-12-27T09:56:54.518Z,50.71
2018-12-27T09:59:20.758Z,50.84
2018-12-27T10:01:46.864Z,50.77
2018-12-27T10:04:12.922Z,50.96
2018-12-27T10:06:39.599Z,51.04
2018-12-27T10:09:05.683Z,50.88
2018-12-27T10:11:31.806Z,51.03
2018-12-27T10:13:57.855Z,50.91
2018-12-27T10:16:23.879Z,50.93
2018-12-27T10:18:49.967Z,51.20
2018-12-27T10:21:16.227Z,51.20
2018-12-27T10:23:42.244Z,51.15
2018-12-27T10:26:08.279Z,51.23
2018-12-27T10:28:34.271Z,51.10
2018-12-27T10:31:00.303Z,50.99
2018-12-27T10:33:26.383Z,51.04
2018-12-27T10:35:52.418Z,51.04
2018-12-27T10:38:18.449Z,50.99
2018-12-27T10:40:44.775Z,50.96
2018-12-27T10:43:10.789Z,50.82
2018-12-27T10:45:36.842Z,51.02
2018-12-27T10:48:02.880Z,50.39
2018-12-27T10:50:29.075Z,50.31
2018-12-27T10:52:55.115Z,50.33
2018-12-27T10:55:21.159Z,50.33
2018-12-27T10:57:47.296Z,50.32
2018-12-27T11:00:13.448Z,50.33
2018-12-27T11:02:39.451Z,50.35
2018-12-27T11:05:05.496Z,50.16
2018-12-27T11:07:31.514Z,50.14
2018-12-27T11:09:57.535Z,50.12
2018-12-27T11:12:23.535Z,50.07
2018-12-27T11:14:49.742Z,49.91
2018-12-27T11:17:15.764Z,49.95
2018-12-27T11:19:41.871Z,49.92
2018-12-27T11:22:07.934Z,49.87
2018-12-27T11:24:34.055Z,49.93
2018-12-27T11:27:00.054Z,49.83
2018-12-27T11:29:26.087Z,49.73
2018-12-27T11:31:52.101Z,49.66
2018-12-27T11:34:18.159Z,49.64
2018-12-27T11:36:44.171Z,49.49
2018-12-27T11:39:10.191Z,49.58
2018-12-27T11:41:36.191Z,49.60
2018-12-27T11:44:02.203Z,49.60
2018-12-27T11:46:28.519Z,49.64
2018-12-27T11:48:54.959Z,49.57
2018-12-27T11:51:21.009Z,49.57
2018-12-27T11:53:47.089Z,49.55
2018-12-27T11:56:13.131Z,49.46
2018-12-27T11:58:39.265Z,49.45
2018-12-27T12:01:05.312Z,49.46
2018-12-27T12:03:31.411Z,49.50
2018-12-27T12:06:03.200Z,49.42
2018-12-27T12:08:25.165Z,49.48
2018-12-27T12:10:51.387Z,49.53
2018-12-27T12:13:17.597Z,49.42
2018-12-27T12:15:43.706Z,49.40
2018-12-27T12:18:09.748Z,49.33
2018-12-27T12:20:35.870Z,49.42
2018-12-27T12:23:02.022Z,49.38
2018-12-27T12:25:28.028Z,49.41
2018-12-27T12:27:54.147Z,49.33
2018-12-27T12:30:20.201Z,49.76
2018-12-27T12:32:46.199Z,49.45
2018-12-27T12:35:12.247Z,49.45
2018-12-27T12:37:38.244Z,49.35
2018-12-27T12:40:04.308Z,49.37
2018-12-27T12:42:33.198Z,49.39
2018-12-27T12:44:58.104Z,49.40
2018-12-27T12:47:24.143Z,49.53
2018-12-27T12:49:50.276Z,49.45
2018-12-27T12:52:16.281Z,49.38
2018-12-27T12:54:42.282Z,49.50
2018-12-27T12:57:08.388Z,49.40
2018-12-27T12:59:34.470Z,49.40
2018-12-27T13:02:00.622Z,49.33
2018-12-27T13:04:26.639Z,49.28
2018-12-27T13:06:52.637Z,49.41
2018-12-27T13:09:18.683Z,49.41
2018-12-27T13:11:44.843Z,49.40
2018-12-27T13:14:11.188Z,49.38
2018-12-27T13:16:37.210Z,49.47
2018-12-27T13:19:03.259Z,49.68
2018-12-27T13:21:29.296Z,49.95
2018-12-27T13:23:56.294Z,49.92
2018-12-27T13:26:22.335Z,49.64
2018-12-27T13:28:48.447Z,49.56
2018-12-27T13:31:14.506Z,49.62
2018-12-27T13:33:40.519Z,49.57
2018-12-27T13:36:06.658Z,49.65
2018-12-27T13:38:32.656Z,49.70
2018-12-27T13:40:58.671Z,49.68
2018-12-27T13:43:24.704Z,50.00
2018-12-27T13:45:50.713Z,50.16
2018-12-27T13:48:16.781Z,50.46
2018-12-27T13:50:42.832Z,50.58
2018-12-27T13:53:08.835Z,51.03
2018-12-27T13:55:34.867Z,50.94
2018-12-27T13:58:00.878Z,50.68
2018-12-27T14:00:26.926Z,50.90
2018-12-27T14:02:52.983Z,50.94
2018-12-27T14:05:19.013Z,51.02
2018-12-27T14:07:45.034Z,51.14
2018-12-27T14:10:11.065Z,51.26
2018-12-27T14:12:37.072Z,51.32
2018-12-27T14:15:03.100Z,51.33
2018-12-27T14:17:29.118Z,51.48
2018-12-27T14:19:55.138Z,51.46
2018-12-27T14:22:21.223Z,51.76
2018-12-27T14:24:47.319Z,51.70
2018-12-27T14:27:13.340Z,51.80
2018-12-27T14:29:39.383Z,51.67
2018-12-27T14:32:05.426Z,51.56
2018-12-27T14:34:31.455Z,51.56
2018-12-27T14:36:57.545Z,51.54
2018-12-27T14:39:23.623Z,51.50
2018-12-27T14:41:50.190Z,51.47
2018-12-27T14:44:16.237Z,51.44
2018-12-27T14:46:42.354Z,51.42
2018-12-27T14:49:08.366Z,51.65
2018-12-27T14:51:34.636Z,51.60
2018-12-27T14:54:00.651Z,51.61
2018-12-27T14:56:26.987Z,51.64
2018-12-27T14:58:53.008Z,51.57
2018-12-27T15:01:19.022Z,51.51
2018-12-27T15:03:45.059Z,51.59
2018-12-27T15:06:11.158Z,51.79
2018-12-27T15:08:37.174Z,51.58
2018-12-27T15:11:03.378Z,51.72
2018-12-27T15:13:29.410Z,51.83
2018-12-27T15:15:55.459Z,51.48
2018-12-27T15:18:21.634Z,51.55
2018-12-27T15:20:47.665Z,51.47
2018-12-27T15:23:13.672Z,51.46
2018-12-27T15:25:39.675Z,51.29
2018-12-27T15:28:05.943Z,51.21
2018-12-27T15:30:31.964Z,51.31
2018-12-27T15:32:57.997Z,51.14
2018-12-27T15:35:24.115Z,51.31
2018-12-27T15:37:50.124Z,51.23
2018-12-27T15:40:16.147Z,51.29
2018-12-27T15:42:42.475Z,51.30
2018-12-27T15:45:08.558Z,51.46
2018-12-27T15:47:34.536Z,51.48
2018-12-27T15:50:00.565Z,51.52
2018-12-27T15:52:26.603Z,51.50
2018-12-27T15:54:52.618Z,51.56
2018-12-27T15:57:18.656Z,51.54
2018-12-27T15:59:44.666Z,51.53
2018-12-27T16:02:10.699Z,51.52
2018-12-27T16:04:36.786Z,51.55
2018-12-27T16:07:02.794Z,51.51
2018-12-27T16:09:28.858Z,51.44
2018-12-27T16:11:54.971Z,51.53
2018-12-27T16:14:21.032Z,51.32
2018-12-27T16:16:47.023Z,51.25
2018-12-27T16:19:13.063Z,51.06
2018-12-27T16:21:40.917Z,50.68
2018-12-27T16:24:07.110Z,50.86
2018-12-27T16:26:33.162Z,50.90
2018-12-27T16:28:59.410Z,51.12
2018-12-27T16:31:25.572Z,51.14
2018-12-27T16:33:51.804Z,51.13
2018-12-27T16:36:17.927Z,51.38
2018-12-27T16:38:43.951Z,51.40
2018-12-27T16:41:09.966Z,51.38
2018-12-27T16:43:36.006Z,51.34
2018-12-27T16:46:02.056Z,51.47
2018-12-27T16:48:28.058Z,51.40
2018-12-27T16:50:54.088Z,51.22
2018-12-27T16:53:20.115Z,51.32
2018-12-27T16:55:46.207Z,51.17
2018-12-27T16:58:12.302Z,51.50
2018-12-27T17:00:38.305Z,51.35
2018-12-27T17:03:04.373Z,51.37
2018-12-27T17:05:30.367Z,51.40
2018-12-27T17:07:56.391Z,50.97
2018-12-27T17:10:22.406Z,51.08
2018-12-27T17:12:48.402Z,50.92
2018-12-27T17:15:14.733Z,50.89
2018-12-27T17:17:40.854Z,50.81
2018-12-27T17:20:06.914Z,50.71
2018-12-27T17:22:32.950Z,50.61
2018-12-27T17:24:58.989Z,50.52
2018-12-27T17:27:25.033Z,50.56
2018-12-27T17:29:51.059Z,50.72
2018-12-27T17:32:17.068Z,50.60
2018-12-27T17:34:43.100Z,50.55
2018-12-27T17:37:09.173Z,50.49
2018-12-27T17:39:35.190Z,50.48
2018-12-27T17:42:01.335Z,50.41
2018-12-27T17:44:27.340Z,50.39
2018-12-27T17:46:53.351Z,50.16
2018-12-27T17:49:19.368Z,50.25
2018-12-27T17:51:45.697Z,50.22
2018-12-27T17:54:11.871Z,50.09
2018-12-27T17:56:37.915Z,50.15
2018-12-27T17:59:03.939Z,50.17
2018-12-27T18:01:29.951Z,50.19
2018-12-27T18:03:56.229Z,50.41
2018-12-27T18:06:22.585Z,50.37
2018-12-27T18:08:48.594Z,50.56
2018-12-27T18:11:14.614Z,50.70
2018-12-27T18:13:40.635Z,50.75
2018-12-27T18:16:06.755Z,50.84
2018-12-27T18:18:32.755Z,50.90
2018-12-27T18:20:58.797Z,50.97
2018-12-27T18:23:24.875Z,51.02
2018-12-27T18:25:50.858Z,51.17
2018-12-27T18:28:16.886Z,51.16
2018-12-27T18:30:42.913Z,50.98
2018-12-27T18:33:08.969Z,51.03
2018-12-27T18:35:34.954Z,50.99
2018-12-27T18:38:00.977Z,50.95
2018-12-27T18:40:27.005Z,50.92
2018-12-27T18:42:53.019Z,50.86
2018-12-27T18:45:19.076Z,51.01
2018-12-27T18:47:45.084Z,50.99
2018-12-27T18:50:11.104Z,51.06
2018-12-27T18:52:38.130Z,50.99
2018-12-27T18:55:04.132Z,51.12
2018-12-27T18:57:30.174Z,51.13
2018-12-27T18:59:56.194Z,51.21
2018-12-27T19:02:22.266Z,51.21
2018-12-27T19:04:48.385Z,51.28
2018-12-27T19:07:14.483Z,51.23
2018-12-27T19:09:40.540Z,51.33
2018-12-27T19:12:06.591Z,51.32
2018-12-27T19:14:32.704Z,51.29
2018-12-27T19:16:58.755Z,50.62
2018-12-27T19:19:24.765Z,50.43
2018-12-27T19:21:50.799Z,50.60
2018-12-27T19:24:16.798Z,50.91
2018-12-27T19:26:42.884Z,50.98
2018-12-27T19:29:09.056Z,51.00
2018-12-27T19:31:36.749Z,50.87
2018-12-27T19:34:02.746Z,51.12
2018-12-27T19:36:28.782Z,51.03
2018-12-27T19:38:54.795Z,51.23
2018-12-27T19:41:20.797Z,51.27
2018-12-27T19:43:46.821Z,51.19
2018-12-27T19:46:13.144Z,51.26
2018-12-27T19:48:39.183Z,51.30
2018-12-27T19:51:05.275Z,51.28
2018-12-27T19:53:31.290Z,51.21
2018-12-27T19:55:57.370Z,51.25
2018-12-27T19:58:23.382Z,51.41
2018-12-27T20:00:49.417Z,51.25
2018-12-27T20:03:15.458Z,51.08
2018-12-27T20:05:41.540Z,51.19
2018-12-27T20:08:07.597Z,51.08
2018-12-27T20:10:33.720Z,51.04
2018-12-27T20:12:59.735Z,50.93
2018-12-27T20:15:25.749Z,50.90
2018-12-27T20:17:51.758Z,51.05
2018-12-27T20:20:18.167Z,51.22
2018-12-27T20:22:44.193Z,51.08
2018-12-27T20:25:10.244Z,51.03
2018-12-27T20:27:36.256Z,51.01
2018-12-27T20:30:02.283Z,50.85
2018-12-27T20:32:28.404Z,51.11
2018-12-27T20:34:54.446Z,50.95
2018-12-27T20:37:20.467Z,50.97
2018-12-27T20:39:46.466Z,51.20
2018-12-27T20:42:12.522Z,51.22
2018-12-27T20:44:38.528Z,51.15
2018-12-27T20:47:04.584Z,50.94
2018-12-27T20:49:30.695Z,51.00
2018-12-27T20:51:56.735Z,50.82
2018-12-27T20:54:22.779Z,50.67
2018-12-27T20:56:48.796Z,50.78
2018-12-27T20:59:14.810Z,50.58
2018-12-27T21:01:40.826Z,50.47
2018-12-27T21:04:06.839Z,50.61
2018-12-27T21:06:32.887Z,50.57
2018-12-27T21:08:58.918Z,50.53
2018-12-27T21:11:24.918Z,50.69
2018-12-27T21:13:50.963Z,50.78
2018-12-27T21:16:16.974Z,50.71
2018-12-27T21:18:43.042Z,50.92
2018-12-27T21:21:09.320Z,50.80
2018-12-27T21:23:35.339Z,50.78
2018-12-27T21:26:01.373Z,50.50
2018-12-27T21:28:27.450Z,50.70
2018-12-27T21:30:53.714Z,50.56
2018-12-27T21:33:19.740Z,50.57
2018-12-27T21:35:45.777Z,50.74
2018-12-27T21:38:11.880Z,50.61
2018-12-27T21:40:37.927Z,50.32
2018-12-27T21:43:03.974Z,50.25
2018-12-27T21:45:30.379Z,50.46
2018-12-27T21:47:56.415Z,50.41
2018-12-27T21:50:22.562Z,50.30
2018-12-27T21:52:48.567Z,50.10
2018-12-27T21:55:14.580Z,50.45
2018-12-27T21:57:40.599Z,50.18
2018-12-27T22:00:06.678Z,50.31
2018-12-27T22:02:32.683Z,50.46
2018-12-27T22:04:58.683Z,50.59
2018-12-27T22:07:24.715Z,50.38
2018-12-27T22:09:50.758Z,50.43
2018-12-27T22:12:16.804Z,50.41
2018-12-27T22:14:42.861Z,50.29
2018-12-27T22:17:08.885Z,50.28
2018-12-27T22:19:34.911Z,50.25
2018-12-27T22:22:00.918Z,50.22
2018-12-27T22:24:26.961Z,49.94
2018-12-27T22:26:52.983Z,49.80
2018-12-27T22:29:19.096Z,49.69
2018-12-27T22:31:45.104Z,49.58
2018-12-27T22:34:11.118Z,49.56
2018-12-27T22:36:37.203Z,49.69
2018-12-27T22:39:03.285Z,49.44
2018-12-27T22:41:29.287Z,49.38
2018-12-27T22:43:55.332Z,49.27
2018-12-27T22:46:21.377Z,49.38
2018-12-27T22:48:47.400Z,49.31
2018-12-27T22:51:13.422Z,49.37
2018-12-27T22:53:39.430Z,49.25
2018-12-27T22:56:05.448Z,49.30
2018-12-27T22:58:31.470Z,49.39
2018-12-27T23:00:57.479Z,49.22
2018-12-27T23:03:23.659Z,49.49
2018-12-27T23:05:49.918Z,49.58
2018-12-27T23:08:15.994Z,49.65
2018-12-27T23:10:42.046Z,49.63
2018-12-27T23:13:08.064Z,50.08
2018-12-27T23:15:34.092Z,49.70
2018-12-27T23:18:00.169Z,49.68
2018-12-27T23:20:26.415Z,49.69
2018-12-27T23:22:52.826Z,49.71
2018-12-27T23:25:18.910Z,49.71
2018-12-27T23:27:44.921Z,49.72
2018-12-27T23:30:10.940Z,49.55
2018-12-27T23:32:36.998Z,49.61
2018-12-27T23:35:03.008Z,49.61
2018-12-27T23:37:29.015Z,49.68
2018-12-27T23:39:55.039Z,49.81
2018-12-27T23:42:21.040Z,49.83
2018-12-27T23:44:47.146Z,49.83
2018-12-27T23:47:13.150Z,50.02
2018-12-27T23:49:39.184Z,50.12
2018-12-27T23:52:05.213Z,49.83
2018-12-27T23:54:31.203Z,49.90
2018-12-27T23:56:57.226Z,50.03
2018-12-27T23:59:23.253Z,50.11
